Time;durP1;ratioP1;P1;durP2;ratioP2;P2;SDS_P1;SDS_P2;PMS_P1;PMS_P2;Temp;Humidity;BMP_temperature;BMP_pressure;BME280_temperature;BME280_humidity;BME280_pressure;Samples;Min_cycle;Max_cycle;Signal;HPM_P1;HPM_P2
2021/12/08 00:01:23;;;;;;;8.85;5.72;;;;;;;0.75;95.01;96764.38;1788144;80;21417;-82
2021/12/08 00:03:52;;;;;;;8.28;5.90;;;;;;;0.76;94.71;96761.77;1780214;80;21576;-83
2021/12/08 00:06:19;;;;;;;8.98;6.22;;;;;;;0.81;94.79;96762.13;1720933;83;21045;-82
2021/12/08 00:08:59;;;;;;;8.63;6.15;;;;;;;0.77;94.93;96768.70;1721167;83;21023;-82
2021/12/08 00:14:00;;;;;;;9.60;6.30;;;;;;;0.84;94.84;96773.42;1779622;80;20977;-81
2021/12/08 00:16:27;;;;;;;9.45;5.85;;;;;;;0.86;94.71;96776.86;1788428;80;20984;-81
2021/12/08 00:18:57;;;;;;;8.58;6.08;;;;;;;0.89;94.50;96783.36;1788359;80;20984;-81
2021/12/08 00:21:25;;;;;;;8.33;5.55;;;;;;;0.93;95.05;96782.88;1787862;80;20989;-82
2021/12/08 00:23:50;;;;;;;9.75;6.75;;;;;;;1.01;95.12;96786.71;1763587;80;20988;-82
2021/12/08 00:26:16;;;;;;;9.68;6.00;;;;;;;1.07;95.17;96786.63;1757232;82;21036;-81
2021/12/08 00:28:42;;;;;;;10.13;6.35;;;;;;;1.12;95.11;96786.60;1757224;82;21008;-81
2021/12/08 00:31:09;;;;;;;9.20;6.53;;;;;;;1.15;94.98;96789.16;1757283;82;21387;-81
2021/12/08 00:33:36;;;;;;;8.68;5.80;;;;;;;1.15;94.63;96782.63;1777237;80;21008;-82
2021/12/08 00:36:06;;;;;;;10.20;6.47;;;;;;;1.17;95.05;96782.19;1788196;80;21019;-81
2021/12/08 00:38:33;;;;;;;9.55;6.47;;;;;;;1.18;95.29;96786.09;1788401;80;20988;-82
2021/12/08 00:40:59;;;;;;;11.03;6.92;;;;;;;1.18;95.29;96780.88;1788467;80;20973;-81
2021/12/08 00:43:26;;;;;;;11.12;6.92;;;;;;;1.17;94.93;96789.55;1748832;80;20988;-81
2021/12/08 00:45:54;;;;;;;9.50;6.62;;;;;;;1.17;94.95;96784.34;1727394;82;21001;-81
2021/12/08 00:48:22;;;;;;;9.28;6.25;;;;;;;1.14;94.70;96790.92;1740959;82;21467;-82
2021/12/08 00:50:50;;;;;;;9.70;6.33;;;;;;;1.13;95.06;96792.23;1686694;85;21013;-82
2021/12/08 00:53:17;;;;;;;9.60;6.22;;;;;;;1.10;94.50;96795.75;1694104;83;21040;-82
2021/12/08 00:55:44;;;;;;;10.20;7.05;;;;;;;1.08;94.42;96805.31;1723143;83;21048;-81
2021/12/08 00:58:10;;;;;;;10.45;7.05;;;;;;;1.00;94.18;96806.70;1721249;83;21495;-82
2021/12/08 01:00:42;;;;;;;10.58;6.47;;;;;;;0.98;94.04;96796.74;1721275;83;21298;-81
2021/12/08 01:03:10;;;;;;;10.15;6.85;;;;;;;0.94;94.29;96807.20;1757665;80;21462;-82
2021/12/08 01:05:48;;;;;;;10.82;6.62;;;;;;;0.93;94.53;96808.97;1757345;82;21024;-81
2021/12/08 01:08:16;;;;;;;8.55;6.05;;;;;;;0.90;94.12;96814.20;1756083;81;21052;-82
2021/12/08 01:10:46;;;;;;;10.05;6.80;;;;;;;0.83;94.11;96809.48;1760625;80;20988;-82
2021/12/08 01:13:14;;;;;;;10.98;6.67;;;;;;;0.81;94.11;96815.17;1765638;80;20992;-81
2021/12/08 01:15:46;;;;;;;8.93;5.92;;;;;;;0.83;93.98;96810.79;1721234;83;21012;-82
2021/12/08 01:18:13;;;;;;;9.33;6.40;;;;;;;0.80;94.10;96814.75;1721044;83;20991;-81
2021/12/08 01:20:41;;;;;;;12.98;7.15;;;;;;;0.75;94.17;96808.72;1726256;80;21082;-81
2021/12/08 01:23:08;;;;;;;11.00;6.40;;;;;;;0.75;94.42;96812.63;1787954;80;20980;-81
2021/12/08 01:25:35;;;;;;;10.18;6.20;;;;;;;0.72;94.26;96818.74;1788337;80;21000;-82
2021/12/08 01:28:01;;;;;;;9.08;5.55;;;;;;;0.72;94.40;96815.26;1788344;80;21012;-82
2021/12/08 01:30:28;;;;;;;9.65;6.10;;;;;;;0.74;94.40;96822.61;1788430;80;20982;-81
2021/12/08 01:32:55;;;;;;;10.72;6.30;;;;;;;0.73;94.12;96829.59;1787529;80;21358;-81
2021/12/08 01:35:23;;;;;;;8.88;6.10;;;;;;;0.72;94.09;96828.30;1788342;80;21399;-81
2021/12/08 01:37:50;;;;;;;8.30;5.42;;;;;;;0.73;94.21;96823.07;1788251;80;21470;-81
2021/12/08 01:40:18;;;;;;;8.15;5.75;;;;;;;0.79;94.28;96820.86;1788486;80;21027;-82
2021/12/08 01:42:50;;;;;;;9.20;5.28;;;;;;;0.79;94.24;96825.61;1728100;80;20949;-82
2021/12/08 01:48:09;;;;;;;8.35;5.12;;;;;;;0.87;94.39;96820.32;1713594;84;21009;-81
2021/12/08 01:50:38;;;;;;;7.65;5.40;;;;;;;0.88;94.23;96815.52;1713892;82;21076;-81
2021/12/08 01:53:07;;;;;;;7.42;5.00;;;;;;;0.94;94.31;96811.12;1723579;82;21034;-81
2021/12/08 01:55:35;;;;;;;7.92;5.10;;;;;;;0.93;93.87;96815.49;1722960;82;21460;-81
2021/12/08 01:58:02;;;;;;;8.18;4.97;;;;;;;0.93;94.07;96811.58;1679068;85;21475;-81
2021/12/08 02:00:42;;;;;;;6.80;5.17;;;;;;;0.94;94.16;96808.51;1654680;87;21038;-81
2021/12/08 02:03:09;;;;;;;8.35;6.25;;;;;;;0.92;93.84;96809.86;1685184;85;20963;-82
2021/12/08 02:05:37;;;;;;;7.67;5.40;;;;;;;0.92;94.06;96806.79;1713358;83;21035;-81
2021/12/08 02:08:05;;;;;;;8.53;5.55;;;;;;;0.92;93.95;96805.95;1685030;85;21002;-81
2021/12/08 02:10:32;;;;;;;7.37;5.03;;;;;;;0.89;93.69;96813.36;1719590;83;20996;-81
2021/12/08 02:12:59;;;;;;;6.72;4.87;;;;;;;0.82;93.98;96807.77;1778041;81;20961;-81
2021/12/08 02:15:26;;;;;;;9.58;5.75;;;;;;;0.73;93.97;96811.77;1780057;81;21025;-81
2021/12/08 02:17:55;;;;;;;8.48;5.67;;;;;;;0.71;94.35;96806.56;1780028;81;21398;-81
2021/12/08 02:20:26;;;;;;;9.38;5.35;;;;;;;0.70;94.48;96802.69;1762386;81;21012;-80
2021/12/08 02:22:53;;;;;;;8.48;5.78;;;;;;;0.71;94.77;96805.25;1749453;82;20989;-81
2021/12/08 02:25:24;;;;;;;8.58;6.03;;;;;;;0.72;94.41;96804.83;1749251;82;21048;-81
2021/12/08 02:27:52;;;;;;;8.20;5.58;;;;;;;0.73;94.50;96810.46;1749142;82;21011;-81
2021/12/08 02:30:39;;;;;;;9.75;5.28;;;;;;;0.65;94.95;96810.11;1749940;81;20982;-81
2021/12/08 02:47:11;;;;;;;9.33;5.10;;;;;;;0.64;94.95;96824.03;1779960;80;21072;-80
2021/12/08 02:49:35;;;;;;;9.08;6.12;;;;;;;0.63;95.04;96822.28;1766678;80;20969;-82
2021/12/08 02:52:04;;;;;;;9.63;6.42;;;;;;;0.71;95.27;96823.97;1691992;84;21057;-81
2021/12/08 02:54:45;;;;;;;9.60;6.58;;;;;;;0.77;95.13;96822.17;1713415;84;21083;-81
2021/12/08 02:57:14;;;;;;;9.93;5.90;;;;;;;0.81;94.93;96824.73;1727587;82;21418;-82
2021/12/08 02:59:42;;;;;;;11.03;7.15;;;;;;;0.86;94.80;96822.94;1742092;81;21048;-81
2021/12/08 03:02:09;;;;;;;10.15;6.47;;;;;;;0.88;95.30;96837.70;1725438;81;20961;-82
2021/12/08 03:04:37;;;;;;;10.75;6.47;;;;;;;0.96;94.75;96840.26;1723780;81;21429;-81
2021/12/08 03:07:05;;;;;;;9.75;6.58;;;;;;;0.90;94.14;96838.98;1713362;84;21372;-80
2021/12/08 03:09:32;;;;;;;10.03;6.35;;;;;;;0.87;94.19;96839.88;1722343;81;20992;-81
2021/12/08 03:12:03;;;;;;;11.55;7.33;;;;;;;0.89;94.62;96843.79;1762440;81;21065;-81
2021/12/08 03:14:30;;;;;;;11.33;7.50;;;;;;;0.92;94.62;96851.59;1743206;82;20954;-80
2021/12/08 03:17:04;;;;;;;11.48;7.47;;;;;;;0.97;94.75;96846.32;1743012;82;20994;-81
2021/12/08 03:19:31;;;;;;;11.78;6.95;;;;;;;0.98;94.64;96845.01;1740938;81;21114;-81
2021/12/08 03:21:59;;;;;;;12.28;7.97;;;;;;;1.00;94.84;96838.48;1719586;83;21401;-80
2021/12/08 03:24:33;;;;;;;12.10;7.33;;;;;;;1.04;94.45;96837.57;1719462;83;21481;-81
2021/12/08 03:29:46;;;;;;;14.50;8.53;;;;;;;1.06;94.96;96834.48;1767658;81;21195;-81
2021/12/08 03:32:13;;;;;;;11.20;7.33;;;;;;;1.08;94.63;96832.72;1777847;80;21020;-81
2021/12/08 03:34:40;;;;;;;11.40;7.08;;;;;;;1.09;94.49;96834.47;1779104;80;21376;-80
2021/12/08 03:37:09;;;;;;;12.80;7.33;;;;;;;1.08;93.95;96835.78;1779797;81;21024;-81
2021/12/08 03:39:41;;;;;;;12.13;7.80;;;;;;;1.06;93.84;96841.02;1725026;81;21000;-80
2021/12/08 03:42:09;;;;;;;11.70;7.47;;;;;;;1.03;93.96;96842.34;1713385;83;21095;-81
2021/12/08 03:44:37;;;;;;;10.68;6.97;;;;;;;1.02;93.89;96834.09;1713329;84;21402;-81
2021/12/08 03:47:15;;;;;;;11.12;7.12;;;;;;;0.98;93.41;96833.27;1717457;83;20965;-80
2021/12/08 03:49:35;;;;;;;12.05;7.75;;;;;;;0.90;93.59;96832.05;1748747;82;21493;-81
2021/12/08 03:52:04;;;;;;;12.30;7.42;;;;;;;0.87;93.70;96832.52;1757055;81;21010;-81
2021/12/08 03:54:30;;;;;;;10.82;7.03;;;;;;;0.86;93.89;96840.77;1757137;81;21075;-81
2021/12/08 03:56:57;;;;;;;11.05;6.75;;;;;;;0.85;93.93;96838.17;1757239;82;20950;-81
2021/12/08 03:59:24;;;;;;;12.68;7.90;;;;;;;0.86;94.00;96842.50;1731531;82;20988;-81
2021/12/08 04:01:51;;;;;;;12.40;6.92;;;;;;;0.88;94.04;96846.83;1721059;83;21075;-81
2021/12/08 04:04:17;;;;;;;10.48;6.70;;;;;;;0.89;94.03;96849.88;1721152;83;21035;-80
2021/12/08 04:06:48;;;;;;;10.72;6.83;;;;;;;0.94;94.24;96851.55;1721091;83;21406;-81
2021/12/08 04:09:24;;;;;;;10.05;6.33;;;;;;;0.96;94.29;96846.78;1699176;83;21016;-81
2021/12/08 04:11:46;;;;;;;14.63;6.42;;;;;;;1.01;94.28;96850.63;1663421;86;21063;-80
2021/12/08 04:14:18;;;;;;;9.90;6.60;;;;;;;1.00;93.83;96844.53;1698496;84;21409;-81
2021/12/08 04:16:55;;;;;;;11.45;6.72;;;;;;;1.02;94.20;96847.14;1698458;84;21063;-80
2021/12/08 04:19:23;;;;;;;12.63;6.95;;;;;;;1.05;94.16;96851.88;1737436;82;21072;-81
2021/12/08 04:21:54;;;;;;;10.43;6.62;;;;;;;1.04;94.16;96861.05;1738010;81;20985;-81
2021/12/08 04:24:22;;;;;;;11.65;7.62;;;;;;;1.05;94.22;96866.23;1727482;83;20984;-81
2021/12/08 04:26:56;;;;;;;10.35;7.35;;;;;;;1.07;94.17;96862.77;1727205;83;21028;-81
2021/12/08 04:29:28;;;;;;;11.20;7.22;;;;;;;1.05;94.12;96864.92;1746749;82;20981;-81
2021/12/08 04:31:57;;;;;;;10.65;7.42;;;;;;;0.94;93.02;96863.30;1757443;82;20985;-80
2021/12/08 04:34:30;;;;;;;13.75;8.58;;;;;;;0.91;93.36;96870.28;1757254;82;21004;-80
2021/12/08 04:37:03;;;;;;;11.12;7.83;;;;;;;0.90;93.65;96872.91;1745259;80;20964;-80
2021/12/08 04:39:45;;;;;;;12.45;7.97;;;;;;;0.87;93.91;96876.86;1721319;83;21569;-80
2021/12/08 04:42:08;;;;;;;11.78;8.35;;;;;;;0.81;94.03;96869.95;1719118;83;21000;-81
2021/12/08 04:44:41;;;;;;;11.78;8.00;;;;;;;0.84;94.00;96870.36;1720757;83;21009;-81
2021/12/08 04:47:33;;;;;;;12.60;8.35;;;;;;;0.85;94.03;96872.08;1730751;81;21032;-81
2021/12/08 04:50:10;;;;;;;13.22;7.72;;;;;;;0.86;93.82;96881.20;1738936;82;20997;-80
2021/12/08 04:52:25;;;;;;;13.30;8.83;;;;;;;0.81;93.91;96877.77;1747312;81;21081;-80
2021/12/08 05:06:17;;;;;;;11.75;8.08;;;;;;;0.82;93.55;96900.82;1780090;81;21012;-80
2021/12/08 05:08:42;;;;;;;12.10;8.10;;;;;;;0.79;93.64;96894.73;1717114;81;20961;-81
2021/12/08 05:11:13;;;;;;;14.47;8.70;;;;;;;0.83;93.66;96905.16;1725989;82;20965;-81
2021/12/08 05:13:43;;;;;;;13.48;9.43;;;;;;;0.82;93.62;96906.88;1742568;82;21066;-81
2021/12/08 05:16:11;;;;;;;15.20;9.73;;;;;;;0.83;93.58;96897.33;1737734;82;21012;-80
2021/12/08 05:18:43;;;;;;;17.77;9.83;;;;;;;0.82;93.51;96904.73;1749295;81;21016;-80
2021/12/08 05:21:18;;;;;;;16.30;9.28;;;;;;;0.83;93.36;96907.77;1749017;82;21005;-81
2021/12/08 05:23:52;;;;;;;14.80;9.33;;;;;;;0.84;93.22;96911.67;1749121;82;21009;-81
2021/12/08 05:26:28;;;;;;;13.85;9.48;;;;;;;0.86;93.30;96904.68;1734149;81;21418;-81
2021/12/08 05:28:59;;;;;;;15.13;9.80;;;;;;;0.89;93.32;96904.66;1713275;84;21025;-81
2021/12/08 05:31:29;;;;;;;15.20;10.05;;;;;;;0.93;93.48;96910.72;1713609;84;21043;-81
2021/12/08 05:33:56;;;;;;;15.25;9.75;;;;;;;0.96;93.61;96909.82;1713506;84;21442;-81
2021/12/08 05:36:23;;;;;;;16.70;10.13;;;;;;;1.00;93.69;96911.07;1757514;81;21000;-80
2021/12/08 05:38:53;;;;;;;13.28;8.58;;;;;;;0.99;93.40;96913.26;1779966;81;21024;-80
2021/12/08 05:41:25;;;;;;;12.53;8.35;;;;;;;1.03;93.75;96912.78;1780072;81;20989;-80
2021/12/08 05:43:52;;;;;;;15.50;10.13;;;;;;;1.08;93.93;96914.91;1759837;81;20965;-80
2021/12/08 05:46:23;;;;;;;14.80;9.03;;;;;;;1.12;93.78;96914.01;1713385;83;21433;-79
2021/12/08 05:48:51;;;;;;;12.98;8.15;;;;;;;1.14;93.86;96916.61;1713496;84;21004;-80
2021/12/08 05:51:23;;;;;;;13.60;8.73;;;;;;;1.12;92.97;96920.53;1713511;84;21000;-81
2021/12/08 05:53:53;;;;;;;16.25;9.40;;;;;;;1.13;93.08;96922.26;1731418;81;20993;-80
2021/12/08 05:56:21;;;;;;;15.08;8.60;;;;;;;1.13;93.36;96913.13;1780181;81;21489;-80
2021/12/08 05:58:51;;;;;;;14.53;8.80;;;;;;;1.12;93.16;96921.84;1779956;80;21001;-78
2021/12/08 06:01:32;;;;;;;16.75;9.00;;;;;;;1.09;92.88;96914.06;1771601;80;21008;-81
2021/12/08 06:04:00;;;;;;;13.68;8.85;;;;;;;1.07;93.35;96915.80;1755885;80;21004;-80
2021/12/08 06:06:28;;;;;;;14.45;8.80;;;;;;;1.06;93.53;96917.98;1713348;84;21020;-81
2021/12/08 06:08:57;;;;;;;12.70;8.15;;;;;;;1.06;93.03;96923.20;1713605;84;20996;-80
2021/12/08 06:11:27;;;;;;;11.20;7.25;;;;;;;1.04;93.05;96927.59;1727021;82;22077;-81
2021/12/08 06:13:59;;;;;;;10.95;7.35;;;;;;;1.04;92.60;96927.59;1748079;81;20969;-80
2021/12/08 06:16:24;;;;;;;11.63;7.08;;;;;;;1.05;92.98;96929.31;1757005;80;21033;-79
2021/12/08 06:18:52;;;;;;;14.23;8.08;;;;;;;1.08;93.12;96927.95;1739494;82;21297;-79
2021/12/08 06:21:23;;;;;;;12.45;8.00;;;;;;;1.08;93.08;96922.74;1752711;81;21021;-80
2021/12/08 06:23:51;;;;;;;12.23;7.53;;;;;;;1.09;93.17;96928.41;1762053;80;20993;-80
2021/12/08 06:26:22;;;;;;;12.88;8.10;;;;;;;1.04;92.27;96930.20;1730155;81;21028;-80
2021/12/08 06:28:50;;;;;;;13.83;8.55;;;;;;;0.99;92.13;96935.44;1744545;82;21043;-81
2021/12/08 06:31:22;;;;;;;12.28;7.35;;;;;;;0.97;92.37;96935.03;1740537;82;20997;-80
2021/12/08 06:33:50;;;;;;;13.50;6.72;;;;;;;0.94;92.46;96939.83;1743704;81;20957;-81
2021/12/08 06:36:34;;;;;;;11.48;6.72;;;;;;;0.88;92.22;96946.41;1731926;81;21036;-81
2021/12/08 06:39:06;;;;;;;11.55;6.92;;;;;;;0.88;92.40;96943.80;1748165;81;21414;-81
2021/12/08 06:41:38;;;;;;;11.80;7.92;;;;;;;0.90;92.34;96942.91;1749073;82;21024;-81
2021/12/08 06:44:12;;;;;;;13.98;7.85;;;;;;;0.87;92.34;96948.14;1756076;81;20969;-81
2021/12/08 06:46:42;;;;;;;13.00;8.28;;;;;;;0.86;92.58;96949.02;1762333;80;21001;-80
2021/12/08 06:49:12;;;;;;;16.40;9.43;;;;;;;0.92;92.75;96942.91;1747310;82;21036;-81
2021/12/08 06:51:44;;;;;;;16.42;10.58;;;;;;;1.00;92.87;96946.75;1747723;82;21044;-81
2021/12/08 06:54:15;;;;;;;13.13;8.10;;;;;;;1.02;92.09;96952.38;1742940;82;21020;-81
2021/12/08 06:56:55;;;;;;;15.23;9.10;;;;;;;1.03;91.48;96944.09;1735067;82;21021;-81
2021/12/08 06:59:29;;;;;;;16.55;9.48;;;;;;;1.09;91.82;96956.23;1725143;83;21411;-80
2021/12/08 07:02:08;;;;;;;9.75;6.30;;;;;;;1.10;91.89;96954.92;1726938;82;21036;-81
2021/12/08 07:04:53;;;;;;;11.85;7.75;;;;;;;1.11;91.48;96954.47;1746749;82;21482;-80
2021/12/08 07:07:15;;;;;;;11.10;6.70;;;;;;;1.18;92.13;96953.13;1731274;82;21001;-80
2021/12/08 07:10:08;;;;;;;11.40;6.45;;;;;;;1.20;91.14;96953.55;1725096;83;21024;-80
2021/12/08 07:12:43;;;;;;;9.85;6.10;;;;;;;1.25;91.06;96956.97;1731645;82;20953;-81
2021/12/08 07:15:15;;;;;;;11.70;6.53;;;;;;;1.22;90.10;96956.56;1746045;82;21033;-81
2021/12/08 07:17:45;;;;;;;10.82;7.37;;;;;;;1.21;90.47;96953.53;1724438;82;21462;-81
2021/12/08 07:20:33;;;;;;;11.88;7.35;;;;;;;1.26;91.41;96957.39;1724892;83;21057;-81
2021/12/08 07:22:50;;;;;;;13.85;8.05;;;;;;;1.27;91.16;96947.38;1726021;82;21021;-81
2021/12/08 07:25:21;;;;;;;11.78;7.37;;;;;;;1.29;91.09;96949.55;1724967;82;21438;-81
2021/12/08 07:27:48;;;;;;;12.50;7.30;;;;;;;1.27;89.92;96958.69;1725001;83;21364;-81
2021/12/08 07:30:23;;;;;;;14.33;7.90;;;;;;;1.27;90.97;96953.90;1724703;82;21441;-81
2021/12/08 07:32:50;;;;;;;12.98;6.78;;;;;;;1.32;91.04;96952.11;1724549;81;21561;-81
2021/12/08 07:35:22;;;;;;;11.90;7.58;;;;;;;1.34;90.84;96956.02;1727467;82;21021;-81
2021/12/08 07:37:52;;;;;;;12.88;8.15;;;;;;;1.38;91.21;96953.38;1736047;82;21005;-81
2021/12/08 07:40:30;;;;;;;11.28;7.78;;;;;;;1.42;91.18;96952.44;1725975;82;20985;-81
2021/12/08 07:43:02;;;;;;;12.33;7.58;;;;;;;1.44;90.96;96952.00;1738773;82;20972;-80
2021/12/08 07:45:35;;;;;;;10.25;7.25;;;;;;;1.44;91.07;96952.00;1715711;83;21123;-81
2021/12/08 07:48:07;;;;;;;13.90;9.13;;;;;;;1.38;88.80;96942.94;1716013;82;21783;-81
2021/12/08 07:50:48;;;;;;;12.63;7.87;;;;;;;1.36;89.06;96951.20;1717359;83;21072;-80
2021/12/08 07:53:18;;;;;;;14.20;8.38;;;;;;;1.37;89.93;96955.53;1738917;81;21048;-81
2021/12/08 07:55:49;;;;;;;12.30;7.65;;;;;;;1.37;89.63;96959.45;1729573;81;21112;-80
2021/12/08 07:58:20;;;;;;;13.28;8.70;;;;;;;1.35;89.01;96962.53;1751388;80;21017;-78
2021/12/08 08:01:06;;;;;;;13.32;7.72;;;;;;;1.36;89.03;96956.42;1753942;80;21048;-80
2021/12/08 08:03:34;;;;;;;15.13;8.55;;;;;;;1.39;88.98;96967.27;1740071;81;20961;-80
2021/12/08 08:06:07;;;;;;;12.60;8.03;;;;;;;1.35;88.57;96963.84;1737496;81;21073;-82
2021/12/08 08:08:34;;;;;;;15.88;8.20;;;;;;;1.37;89.62;96963.37;1742264;82;21061;-82
2021/12/08 08:11:12;;;;;;;11.20;7.78;;;;;;;1.42;89.28;96960.73;1741881;82;21036;-82
2021/12/08 08:13:39;;;;;;;11.57;7.05;;;;;;;1.39;89.02;96968.58;1722960;81;21477;-81
2021/12/08 08:16:11;;;;;;;11.43;7.00;;;;;;;1.36;89.16;96968.17;1722882;82;22003;-80
2021/12/08 08:18:44;;;;;;;11.20;6.78;;;;;;;1.36;89.08;96966.02;1716942;81;21071;-81
2021/12/08 08:21:16;;;;;;;11.18;6.83;;;;;;;1.36;89.31;96964.72;1764103;81;21000;-76
2021/12/08 08:23:43;;;;;;;10.98;6.87;;;;;;;1.40;89.01;96966.39;1732650;82;21494;-76
2021/12/08 08:26:12;;;;;;;12.28;7.10;;;;;;;1.43;88.94;96965.06;1740145;82;21059;-75
2021/12/08 08:28:41;;;;;;;13.53;8.45;;;;;;;1.43;89.24;96969.86;1747646;82;20992;-75
2021/12/08 08:31:17;;;;;;;13.20;7.97;;;;;;;1.49;89.10;96965.00;1744270;81;20969;-75
2021/12/08 08:33:45;;;;;;;15.23;8.90;;;;;;;1.55;89.46;96974.53;1745523;81;20981;-74
2021/12/08 08:36:17;;;;;;;12.68;8.50;;;;;;;1.61;89.52;96969.70;1774899;80;21016;-74
2021/12/08 08:38:50;;;;;;;15.18;9.50;;;;;;;1.63;88.66;96971.84;1731902;80;21000;-74
2021/12/08 08:41:22;;;;;;;14.00;9.03;;;;;;;1.64;89.00;96967.91;1775433;80;20977;-74
2021/12/08 08:43:52;;;;;;;16.15;9.53;;;;;;;1.67;89.43;96977.00;1735685;80;21442;-74
2021/12/08 08:46:32;;;;;;;15.23;9.80;;;;;;;1.74;89.56;96976.50;1755854;81;21047;-74
2021/12/08 08:49:09;;;;;;;15.45;8.98;;;;;;;1.79;89.05;96980.38;1716333;81;21056;-74
2021/12/08 08:51:45;;;;;;;16.93;9.98;;;;;;;1.81;89.31;96979.48;1758731;81;21362;-75
2021/12/08 08:54:20;;;;;;;13.85;8.85;;;;;;;1.86;89.26;96974.19;1771206;81;21016;-74
2021/12/08 08:56:53;;;;;;;15.50;9.35;;;;;;;1.91;89.38;96972.84;1741581;81;20957;-75
2021/12/08 08:59:25;;;;;;;14.23;8.53;;;;;;;1.96;89.45;96978.42;1737073;82;20981;-75
2021/12/08 09:01:55;;;;;;;16.30;9.38;;;;;;;2.02;89.42;96967.05;1728212;81;20977;-76
2021/12/08 09:04:39;;;;;;;13.98;9.25;;;;;;;2.03;88.05;96972.69;1749194;82;21025;-75
2021/12/08 09:07:11;;;;;;;14.00;9.13;;;;;;;2.02;88.44;96969.66;1744829;82;21358;-75
2021/12/08 09:09:46;;;;;;;14.70;8.68;;;;;;;2.05;88.32;96975.29;1742846;82;21025;-76
2021/12/08 09:12:21;;;;;;;14.47;8.38;;;;;;;2.03;87.40;96971.84;1733263;82;21012;-74
2021/12/08 09:14:58;;;;;;;14.83;9.30;;;;;;;2.02;88.17;96964.86;1716197;83;21013;-76
2021/12/08 09:17:34;;;;;;;13.58;8.95;;;;;;;2.07;88.38;96969.59;1715658;83;20987;-74
2021/12/08 09:20:09;;;;;;;14.90;8.13;;;;;;;2.08;88.24;96966.96;1719581;83;21485;-77
2021/12/08 09:22:49;;;;;;;14.73;7.70;;;;;;;2.05;87.63;96963.09;1743029;81;20965;-77
2021/12/08 09:25:25;;;;;;;14.65;8.85;;;;;;;2.00;86.61;96957.06;1747164;81;20990;-77
2021/12/08 09:27:55;;;;;;;14.10;8.75;;;;;;;1.95;86.53;96960.17;1760666;81;20981;-75
2021/12/08 09:30:33;;;;;;;15.68;9.10;;;;;;;1.97;87.40;96955.78;1757525;81;21009;-75
2021/12/08 09:33:07;;;;;;;16.05;8.38;;;;;;;1.98;87.36;96954.46;1755133;81;21411;-76
2021/12/08 09:35:42;;;;;;;12.23;7.55;;;;;;;2.01;86.84;96958.79;1744841;81;21096;-76
2021/12/08 09:38:17;;;;;;;14.05;9.25;;;;;;;1.96;86.02;96954.91;1748414;81;20993;-77
2021/12/08 09:40:49;;;;;;;12.35;7.83;;;;;;;1.98;87.25;96950.55;1739783;82;21056;-76
2021/12/08 09:43:21;;;;;;;13.75;8.68;;;;;;;2.03;87.57;96956.16;1756253;81;21009;-76
2021/12/08 09:45:53;;;;;;;13.43;8.40;;;;;;;2.04;86.57;96953.50;1736523;81;21040;-75
2021/12/08 09:48:20;;;;;;;14.43;8.73;;;;;;;2.05;86.44;96948.73;1740916;81;21431;-76
2021/12/08 09:50:47;;;;;;;14.47;8.25;;;;;;;2.11;86.91;96943.84;1732399;82;21020;-75
2021/12/08 09:53:14;;;;;;;15.30;9.15;;;;;;;2.05;85.09;96954.38;1728779;82;21039;-76
2021/12/08 09:55:41;;;;;;;12.28;8.33;;;;;;;2.05;85.98;96945.23;1724639;82;21015;-76
2021/12/08 09:58:07;;;;;;;14.03;9.05;;;;;;;2.00;85.15;96944.43;1727634;82;21596;-75
2021/12/08 10:00:39;;;;;;;13.95;9.23;;;;;;;2.01;86.19;96947.03;1738737;82;21017;-75
2021/12/08 10:03:07;;;;;;;11.73;8.00;;;;;;;2.02;85.84;96950.48;1741314;82;21044;-75
2021/12/08 10:05:39;;;;;;;14.20;8.00;;;;;;;2.00;85.40;96947.92;1752887;82;20969;-75
2021/12/08 10:08:07;;;;;;;13.03;8.35;;;;;;;1.97;85.13;96944.90;1757405;81;20974;-75
2021/12/08 10:10:37;;;;;;;13.30;8.33;;;;;;;2.00;85.25;96945.30;1757073;81;21008;-75
2021/12/08 10:13:05;;;;;;;11.50;7.50;;;;;;;1.94;84.86;96948.84;1742558;81;21000;-75
2021/12/08 10:15:31;;;;;;;14.73;8.68;;;;;;;1.94;85.17;96948.84;1734620;82;21015;-76
2021/12/08 10:17:59;;;;;;;14.43;8.53;;;;;;;1.89;84.69;96951.95;1732992;82;20988;-76
2021/12/08 10:20:31;;;;;;;16.05;9.63;;;;;;;1.87;84.89;96955.02;1737555;82;20933;-76
2021/12/08 10:23:30;;;;;;;15.83;9.70;;;;;;;1.87;85.48;96952.40;1735024;82;21009;-76
2021/12/08 10:26:08;;;;;;;13.43;8.38;;;;;;;1.87;85.34;96953.70;1729370;82;20993;-76
2021/12/08 10:28:39;;;;;;;14.65;9.05;;;;;;;1.87;85.47;96947.17;1730783;82;21430;-76
2021/12/08 10:31:17;;;;;;;14.18;9.33;;;;;;;1.88;85.51;96952.84;1736810;82;21453;-76
2021/12/08 10:34:03;;;;;;;16.60;9.93;;;;;;;1.91;85.98;96953.25;1704878;84;21033;-76
2021/12/08 10:39:47;;;;;;;17.17;9.95;;;;;;;1.92;86.11;96964.12;1675185;84;21395;-75
2021/12/08 10:42:25;;;;;;;15.85;9.80;;;;;;;1.96;85.92;96959.28;1662774;86;20933;-75
2021/12/08 10:45:11;;;;;;;15.28;9.35;;;;;;;1.93;85.92;96964.54;1675090;85;20997;-75
2021/12/08 10:47:53;;;;;;;15.83;9.38;;;;;;;1.89;86.12;96958.49;1731104;82;20953;-74
2021/12/08 10:56:04;;;;;;;14.80;9.35;;;;;;;2.02;86.53;96951.36;1731063;82;20996;-75
2021/12/08 10:58:36;;;;;;;17.12;9.90;;;;;;;2.09;86.70;96949.55;1735541;82;21083;-75
2021/12/08 11:01:17;;;;;;;14.95;8.98;;;;;;;2.16;86.97;96945.95;1731924;82;20996;-75
2021/12/08 11:03:45;;;;;;;18.87;9.95;;;;;;;2.22;86.78;96948.94;1732085;82;21001;-76
2021/12/08 11:06:15;;;;;;;15.35;9.28;;;;;;;2.27;86.84;96949.74;1732687;82;21071;-75
2021/12/08 11:08:46;;;;;;;31.00;19.20;;;;;;;2.33;86.86;96948.80;1740014;82;21028;-75
2021/12/08 11:11:24;;;;;;;33.40;18.98;;;;;;;2.38;86.76;96954.83;1736064;82;20968;-75
2021/12/08 11:14:00;;;;;;;16.87;10.43;;;;;;;2.44;86.92;96949.94;1735755;82;21009;-75
2021/12/08 11:16:39;;;;;;;24.37;14.18;;;;;;;2.49;86.79;96952.92;1730041;82;20988;-75
2021/12/08 11:19:22;;;;;;;14.75;9.98;;;;;;;2.54;85.77;96944.16;1733303;82;21015;-75
2021/12/08 11:21:56;;;;;;;17.07;10.50;;;;;;;2.54;85.52;96952.00;1667982;85;20972;-76
2021/12/08 11:24:35;;;;;;;17.98;10.53;;;;;;;2.51;84.10;96947.67;1684848;84;21066;-76
2021/12/08 11:27:07;;;;;;;16.40;10.18;;;;;;;2.52;85.46;96940.71;1671982;84;21028;-76
2021/12/08 11:29:42;;;;;;;19.70;10.13;;;;;;;2.54;85.45;96944.16;1675400;85;20992;-76
2021/12/08 11:32:12;;;;;;;15.03;9.53;;;;;;;2.57;85.92;96946.73;1699008;84;21439;-76
2021/12/08 11:34:43;;;;;;;18.82;10.32;;;;;;;2.61;86.06;96940.55;1730182;82;21016;-75
2021/12/08 11:37:20;;;;;;;16.07;9.98;;;;;;;2.64;86.07;96937.47;1741303;82;21584;-76
2021/12/08 11:39:52;;;;;;;16.55;10.18;;;;;;;2.68;86.25;96932.17;1733407;82;20988;-76
2021/12/08 11:42:23;;;;;;;16.77;9.78;;;;;;;2.74;86.51;96939.48;1730532;82;21072;-75
2021/12/08 11:44:56;;;;;;;17.15;10.72;;;;;;;2.77;86.19;96945.98;1732858;82;21027;-76
2021/12/08 11:47:29;;;;;;;16.67;9.75;;;;;;;2.82;86.35;96943.75;1736206;81;21044;-76
2021/12/08 11:50:08;;;;;;;21.42;10.70;;;;;;;2.84;86.28;96943.27;1746680;80;21013;-76
2021/12/08 11:52:34;;;;;;;18.70;10.50;;;;;;;2.85;86.13;96940.63;1745956;80;20985;-76
2021/12/08 11:55:09;;;;;;;15.08;9.45;;;;;;;2.83;85.02;96946.78;1779841;81;21084;-75
2021/12/08 11:57:40;;;;;;;18.02;10.60;;;;;;;2.74;84.62;96946.48;1752551;80;21048;-75
2021/12/08 12:00:19;;;;;;;16.02;9.78;;;;;;;2.71;85.14;96947.40;1768071;81;21367;-76
2021/12/08 12:03:01;;;;;;;16.37;9.50;;;;;;;2.71;85.22;96956.55;1739048;81;20965;-76
2021/12/08 12:05:38;;;;;;;14.65;9.08;;;;;;;2.70;85.28;96949.56;1742776;82;21443;-76
2021/12/08 12:08:09;;;;;;;30.12;17.32;;;;;;;2.72;85.57;96949.55;1745657;81;20997;-76
2021/12/08 12:10:39;;;;;;;28.75;14.90;;;;;;;2.74;85.04;96954.34;1742848;81;20966;-76
2021/12/08 12:13:11;;;;;;;15.50;9.95;;;;;;;2.70;85.33;96957.88;1745515;82;21127;-76
2021/12/08 12:15:47;;;;;;;13.50;9.28;;;;;;;2.69;84.94;96962.70;1750542;81;21383;-76
2021/12/08 12:18:10;;;;;;;14.18;8.70;;;;;;;2.61;84.89;96966.28;1764135;81;21021;-74
2021/12/08 12:21:05;;;;;;;14.23;8.48;;;;;;;2.59;85.08;96968.06;1744945;80;21427;-75
2021/12/08 12:24:11;;;;;;;15.63;9.75;;;;;;;2.62;85.20;96965.84;1740013;82;21029;-76
2021/12/08 12:26:53;;;;;;;;;;;;;;;2.63;85.08;96977.56;1761762;81;20982;-76
2021/12/08 12:29:36;;;;;;;15.98;8.98;;;;;;;2.67;85.15;96970.56;1769016;80;20087;-75
2021/12/08 12:32:34;;;;;;;17.95;10.25;;;;;;;2.71;85.37;96972.25;1742575;82;21505;-75
2021/12/08 12:35:17;;;;;;;16.30;8.88;;;;;;;2.80;85.65;96969.94;1638747;85;21021;-76
2021/12/08 12:37:45;;;;;;;15.83;9.05;;;;;;;2.81;85.55;96986.48;1769480;80;21000;-76